sensor_id;sensor_type;location;lat;lon;timestamp;P1;durP1;ratioP1;P2;durP2;ratioP2
63398;SDS011;49533;-34.520;150.798;2023-03-01T00:01:09;2.95;;;2.30;;
63398;SDS011;49533;-34.520;150.798;2023-03-01T00:03:38;4.47;;;2.35;;
63398;SDS011;49533;-34.520;150.798;2023-03-01T00:06:05;3.80;;;2.10;;
63398;SDS011;49533;-34.520;150.798;2023-03-01T00:08:32;3.53;;;2.28;;
63398;SDS011;49533;-34.520;150.798;2023-03-01T00:11:03;2.65;;;2.35;;
63398;SDS011;49533;-34.520;150.798;2023-03-01T00:13:36;1.70;;;1.60;;
63398;SDS011;49533;-34.520;150.798;2023-03-01T00:16:04;2.60;;;1.77;;
63398;SDS011;49533;-34.520;150.798;2023-03-01T00:18:33;2.05;;;1.85;;
63398;SDS011;49533;-34.520;150.798;2023-03-01T00:21:00;1.60;;;1.48;;
63398;SDS011;49533;-34.520;150.798;2023-03-01T00:23:27;2.28;;;2.00;;
63398;SDS011;49533;-34.520;150.798;2023-03-01T00:25:55;1.60;;;1.50;;
63398;SDS011;49533;-34.520;150.798;2023-03-01T00:28:22;1.92;;;1.30;;
63398;SDS011;49533;-34.520;150.798;2023-03-01T00:30:49;1.35;;;1.20;;
63398;SDS011;49533;-34.520;150.798;2023-03-01T00:33:16;1.23;;;1.13;;
63398;SDS011;49533;-34.520;150.798;2023-03-01T00:35:44;1.27;;;1.17;;
63398;SDS011;49533;-34.520;150.798;2023-03-01T00:38:11;1.52;;;1.20;;
63398;SDS011;49533;-34.520;150.798;2023-03-01T00:40:38;2.95;;;1.27;;
63398;SDS011;49533;-34.520;150.798;2023-03-01T00:43:06;2.50;;;1.13;;
63398;SDS011;49533;-34.520;150.798;2023-03-01T00:45:33;2.92;;;1.17;;
63398;SDS011;49533;-34.520;150.798;2023-03-01T00:48:00;1.13;;;1.02;;
63398;SDS011;49533;-34.520;150.798;2023-03-01T00:50:27;6.20;;;1.40;;
63398;SDS011;49533;-34.520;150.798;2023-03-01T00:52:54;2.05;;;1.20;;
63398;SDS011;49533;-34.520;150.798;2023-03-01T00:55:22;1.10;;;0.90;;
63398;SDS011;49533;-34.520;150.798;2023-03-01T00:57:50;1.20;;;1.10;;
63398;SDS011;49533;-34.520;150.798;2023-03-01T01:00:18;1.75;;;0.95;;
63398;SDS011;49533;-34.520;150.798;2023-03-01T01:02:46;6.25;;;0.90;;
63398;SDS011;49533;-34.520;150.798;2023-03-01T01:05:13;1.00;;;0.80;;
63398;SDS011;49533;-34.520;150.798;2023-03-01T01:07:46;3.85;;;0.88;;
63398;SDS011;49533;-34.520;150.798;2023-03-01T01:10:14;0.90;;;0.90;;
63398;SDS011;49533;-34.520;150.798;2023-03-01T01:12:43;1.02;;;0.90;;
63398;SDS011;49533;-34.520;150.798;2023-03-01T01:15:11;0.90;;;0.90;;
63398;SDS011;49533;-34.520;150.798;2023-03-01T01:17:42;0.90;;;0.90;;
63398;SDS011;49533;-34.520;150.798;2023-03-01T01:20:09;0.60;;;0.60;;
63398;SDS011;49533;-34.520;150.798;2023-03-01T01:22:37;3.70;;;0.80;;
63398;SDS011;49533;-34.520;150.798;2023-03-01T01:25:04;0.57;;;0.57;;
63398;SDS011;49533;-34.520;150.798;2023-03-01T01:27:32;0.60;;;0.60;;
63398;SDS011;49533;-34.520;150.798;2023-03-01T01:29:59;1.05;;;0.90;;
63398;SDS011;49533;-34.520;150.798;2023-03-01T01:32:26;4.03;;;0.90;;
63398;SDS011;49533;-34.520;150.798;2023-03-01T01:34:53;2.65;;;0.77;;
63398;SDS011;49533;-34.520;150.798;2023-03-01T01:37:21;5.90;;;0.80;;
63398;SDS011;49533;-34.520;150.798;2023-03-01T01:39:48;0.93;;;0.93;;
63398;SDS011;49533;-34.520;150.798;2023-03-01T01:42:16;1.17;;;1.08;;
63398;SDS011;49533;-34.520;150.798;2023-03-01T01:44:45;1.85;;;1.00;;
63398;SDS011;49533;-34.520;150.798;2023-03-01T01:47:16;1.83;;;0.90;;
63398;SDS011;49533;-34.520;150.798;2023-03-01T01:49:47;0.73;;;0.70;;
63398;SDS011;49533;-34.520;150.798;2023-03-01T01:52:22;1.73;;;1.10;;
63398;SDS011;49533;-34.520;150.798;2023-03-01T01:55:00;1.52;;;0.98;;
63398;SDS011;49533;-34.520;150.798;2023-03-01T01:57:34;1.80;;;1.00;;
63398;SDS011;49533;-34.520;150.798;2023-03-01T02:00:07;3.22;;;1.08;;
63398;SDS011;49533;-34.520;150.798;2023-03-01T02:02:37;0.90;;;0.90;;
63398;SDS011;49533;-34.520;150.798;2023-03-01T02:05:09;0.75;;;0.75;;
63398;SDS011;49533;-34.520;150.798;2023-03-01T02:07:47;1.13;;;0.82;;
63398;SDS011;49533;-34.520;150.798;2023-03-01T02:10:15;1.02;;;1.02;;
63398;SDS011;49533;-34.520;150.798;2023-03-01T02:12:43;1.65;;;1.20;;
63398;SDS011;49533;-34.520;150.798;2023-03-01T02:15:11;0.88;;;0.88;;
63398;SDS011;49533;-34.520;150.798;2023-03-01T02:17:38;4.20;;;1.60;;
63398;SDS011;49533;-34.520;150.798;2023-03-01T02:20:14;1.00;;;1.00;;
63398;SDS011;49533;-34.520;150.798;2023-03-01T02:22:55;1.10;;;1.02;;
63398;SDS011;49533;-34.520;150.798;2023-03-01T02:25:28;0.90;;;0.90;;
63398;SDS011;49533;-34.520;150.798;2023-03-01T02:28:10;2.83;;;1.00;;
63398;SDS011;49533;-34.520;150.798;2023-03-01T02:30:48;0.80;;;0.80;;
63398;SDS011;49533;-34.520;150.798;2023-03-01T02:33:28;0.75;;;0.75;;
63398;SDS011;49533;-34.520;150.798;2023-03-01T02:35:58;0.75;;;0.75;;
63398;SDS011;49533;-34.520;150.798;2023-03-01T02:38:28;2.25;;;0.60;;
63398;SDS011;49533;-34.520;150.798;2023-03-01T02:40:56;2.08;;;0.50;;
63398;SDS011;49533;-34.520;150.798;2023-03-01T02:43:25;0.68;;;0.68;;
63398;SDS011;49533;-34.520;150.798;2023-03-01T02:45:57;1.00;;;0.60;;
63398;SDS011;49533;-34.520;150.798;2023-03-01T02:48:38;1.52;;;1.13;;
63398;SDS011;49533;-34.520;150.798;2023-03-01T02:51:11;1.40;;;0.65;;
63398;SDS011;49533;-34.520;150.798;2023-03-01T02:53:55;1.75;;;0.50;;
63398;SDS011;49533;-34.520;150.798;2023-03-01T02:56:35;0.30;;;0.30;;
63398;SDS011;49533;-34.520;150.798;2023-03-01T02:59:02;0.40;;;0.40;;
63398;SDS011;49533;-34.520;150.798;2023-03-01T03:01:30;6.63;;;0.80;;
63398;SDS011;49533;-34.520;150.798;2023-03-01T03:04:05;3.75;;;0.30;;
63398;SDS011;49533;-34.520;150.798;2023-03-01T03:06:33;1.95;;;0.30;;
63398;SDS011;49533;-34.520;150.798;2023-03-01T03:09:01;2.78;;;0.38;;
63398;SDS011;49533;-34.520;150.798;2023-03-01T03:11:29;2.13;;;0.38;;
63398;SDS011;49533;-34.520;150.798;2023-03-01T03:13:57;2.40;;;0.60;;
63398;SDS011;49533;-34.520;150.798;2023-03-01T03:16:24;2.63;;;0.47;;
63398;SDS011;49533;-34.520;150.798;2023-03-01T03:18:52;0.47;;;0.30;;
63398;SDS011;49533;-34.520;150.798;2023-03-01T03:21:19;0.30;;;0.30;;
63398;SDS011;49533;-34.520;150.798;2023-03-01T03:23:46;1.08;;;0.43;;
63398;SDS011;49533;-34.520;150.798;2023-03-01T03:26:13;1.65;;;0.32;;
63398;SDS011;49533;-34.520;150.798;2023-03-01T03:28:40;0.40;;;0.35;;
63398;SDS011;49533;-34.520;150.798;2023-03-01T03:31:08;1.10;;;0.40;;
63398;SDS011;49533;-34.520;150.798;2023-03-01T03:33:35;0.82;;;0.30;;
63398;SDS011;49533;-34.520;150.798;2023-03-01T03:36:02;0.77;;;0.43;;
63398;SDS011;49533;-34.520;150.798;2023-03-01T03:38:30;1.35;;;0.40;;
63398;SDS011;49533;-34.520;150.798;2023-03-01T03:41:00;1.15;;;0.38;;
63398;SDS011;49533;-34.520;150.798;2023-03-01T03:43:30;1.88;;;0.60;;
63398;SDS011;49533;-34.520;150.798;2023-03-01T03:45:59;1.05;;;0.50;;
63398;SDS011;49533;-34.520;150.798;2023-03-01T03:48:26;2.90;;;1.00;;
63398;SDS011;49533;-34.520;150.798;2023-03-01T03:50:54;3.65;;;1.05;;
63398;SDS011;49533;-34.520;150.798;2023-03-01T03:53:23;7.03;;;0.90;;
63398;SDS011;49533;-34.520;150.798;2023-03-01T03:55:51;4.05;;;1.00;;
63398;SDS011;49533;-34.520;150.798;2023-03-01T03:58:20;3.97;;;1.38;;
63398;SDS011;49533;-34.520;150.798;2023-03-01T04:00:49;4.45;;;1.02;;
63398;SDS011;49533;-34.520;150.798;2023-03-01T04:03:19;3.75;;;0.95;;
63398;SDS011;49533;-34.520;150.798;2023-03-01T04:05:47;1.52;;;0.60;;
63398;SDS011;49533;-34.520;150.798;2023-03-01T04:08:16;1.67;;;0.88;;
63398;SDS011;49533;-34.520;150.798;2023-03-01T04:10:46;7.13;;;1.48;;
63398;SDS011;49533;-34.520;150.798;2023-03-01T04:13:15;5.18;;;1.00;;
63398;SDS011;49533;-34.520;150.798;2023-03-01T04:15:46;3.72;;;0.82;;
63398;SDS011;49533;-34.520;150.798;2023-03-01T04:18:16;3.50;;;0.95;;
63398;SDS011;49533;-34.520;150.798;2023-03-01T04:20:45;2.33;;;0.60;;
63398;SDS011;49533;-34.520;150.798;2023-03-01T04:23:16;4.63;;;1.00;;
63398;SDS011;49533;-34.520;150.798;2023-03-01T04:25:47;1.42;;;0.60;;
63398;SDS011;49533;-34.520;150.798;2023-03-01T04:28:22;2.60;;;0.90;;
63398;SDS011;49533;-34.520;150.798;2023-03-01T04:30:51;3.50;;;0.98;;
63398;SDS011;49533;-34.520;150.798;2023-03-01T04:33:19;3.70;;;1.10;;
63398;SDS011;49533;-34.520;150.798;2023-03-01T04:35:47;3.58;;;1.05;;
63398;SDS011;49533;-34.520;150.798;2023-03-01T04:38:16;2.88;;;1.15;;
63398;SDS011;49533;-34.520;150.798;2023-03-01T04:40:44;4.07;;;1.40;;
63398;SDS011;49533;-34.520;150.798;2023-03-01T04:43:11;3.05;;;1.40;;
63398;SDS011;49533;-34.520;150.798;2023-03-01T04:45:40;4.30;;;1.05;;
63398;SDS011;49533;-34.520;150.798;2023-03-01T04:48:07;2.35;;;0.85;;
63398;SDS011;49533;-34.520;150.798;2023-03-01T04:50:35;4.40;;;1.25;;
63398;SDS011;49533;-34.520;150.798;2023-03-01T04:53:02;4.75;;;1.30;;
63398;SDS011;49533;-34.520;150.798;2023-03-01T04:55:29;2.90;;;1.50;;
63398;SDS011;49533;-34.520;150.798;2023-03-01T04:57:57;4.00;;;1.48;;
63398;SDS011;49533;-34.520;150.798;2023-03-01T05:00:24;1.67;;;0.93;;
63398;SDS011;49533;-34.520;150.798;2023-03-01T05:02:53;3.50;;;1.13;;
63398;SDS011;49533;-34.520;150.798;2023-03-01T05:05:24;1.63;;;1.00;;
63398;SDS011;49533;-34.520;150.798;2023-03-01T05:07:54;2.15;;;1.05;;
63398;SDS011;49533;-34.520;150.798;2023-03-01T05:10:23;2.75;;;1.48;;
63398;SDS011;49533;-34.520;150.798;2023-03-01T05:12:52;3.55;;;1.10;;
63398;SDS011;49533;-34.520;150.798;2023-03-01T05:15:19;9.63;;;1.27;;
63398;SDS011;49533;-34.520;150.798;2023-03-01T05:17:48;5.03;;;1.23;;
63398;SDS011;49533;-34.520;150.798;2023-03-01T05:20:16;4.35;;;1.20;;
63398;SDS011;49533;-34.520;150.798;2023-03-01T05:22:43;5.47;;;1.30;;
63398;SDS011;49533;-34.520;150.798;2023-03-01T05:25:10;5.88;;;1.85;;
63398;SDS011;49533;-34.520;150.798;2023-03-01T05:27:39;3.50;;;1.27;;
63398;SDS011;49533;-34.520;150.798;2023-03-01T05:30:08;1.40;;;1.00;;
63398;SDS011;49533;-34.520;150.798;2023-03-01T05:32:42;3.70;;;1.35;;
63398;SDS011;49533;-34.520;150.798;2023-03-01T05:35:12;9.18;;;1.70;;
63398;SDS011;49533;-34.520;150.798;2023-03-01T05:37:41;6.15;;;1.48;;
63398;SDS011;49533;-34.520;150.798;2023-03-01T05:40:10;2.50;;;1.27;;
63398;SDS011;49533;-34.520;150.798;2023-03-01T05:42:44;4.43;;;1.30;;
63398;SDS011;49533;-34.520;150.798;2023-03-01T05:45:12;2.08;;;1.00;;
63398;SDS011;49533;-34.520;150.798;2023-03-01T05:47:41;2.25;;;0.80;;
63398;SDS011;49533;-34.520;150.798;2023-03-01T05:50:12;3.85;;;1.27;;
63398;SDS011;49533;-34.520;150.798;2023-03-01T05:52:46;2.97;;;1.17;;
63398;SDS011;49533;-34.520;150.798;2023-03-01T05:55:17;2.30;;;1.00;;
63398;SDS011;49533;-34.520;150.798;2023-03-01T05:57:45;3.47;;;1.10;;
63398;SDS011;49533;-34.520;150.798;2023-03-01T06:00:14;3.15;;;1.13;;
63398;SDS011;49533;-34.520;150.798;2023-03-01T06:02:43;4.22;;;1.13;;
63398;SDS011;49533;-34.520;150.798;2023-03-01T06:05:11;2.45;;;0.73;;
63398;SDS011;49533;-34.520;150.798;2023-03-01T06:07:40;2.22;;;1.23;;
63398;SDS011;49533;-34.520;150.798;2023-03-01T06:10:08;2.10;;;0.95;;
63398;SDS011;49533;-34.520;150.798;2023-03-01T06:12:37;2.80;;;1.17;;
63398;SDS011;49533;-34.520;150.798;2023-03-01T06:15:06;3.30;;;1.30;;
63398;SDS011;49533;-34.520;150.798;2023-03-01T06:17:36;3.05;;;0.80;;
63398;SDS011;49533;-34.520;150.798;2023-03-01T06:20:07;4.22;;;1.23;;
63398;SDS011;49533;-34.520;150.798;2023-03-01T06:22:38;4.00;;;1.15;;
63398;SDS011;49533;-34.520;150.798;2023-03-01T06:25:05;3.13;;;1.27;;
63398;SDS011;49533;-34.520;150.798;2023-03-01T06:27:34;2.38;;;1.08;;
63398;SDS011;49533;-34.520;150.798;2023-03-01T06:30:02;1.92;;;0.80;;
63398;SDS011;49533;-34.520;150.798;2023-03-01T06:32:29;2.10;;;0.85;;
63398;SDS011;49533;-34.520;150.798;2023-03-01T06:34:57;3.08;;;1.00;;
63398;SDS011;49533;-34.520;150.798;2023-03-01T06:37:24;3.42;;;1.00;;
63398;SDS011;49533;-34.520;150.798;2023-03-01T06:39:52;4.00;;;1.10;;
63398;SDS011;49533;-34.520;150.798;2023-03-01T06:42:19;1.65;;;1.10;;
63398;SDS011;49533;-34.520;150.798;2023-03-01T06:44:46;3.85;;;1.70;;
63398;SDS011;49533;-34.520;150.798;2023-03-01T06:47:13;2.55;;;1.15;;
63398;SDS011;49533;-34.520;150.798;2023-03-01T06:49:40;2.33;;;1.10;;
63398;SDS011;49533;-34.520;150.798;2023-03-01T06:52:08;2.03;;;1.02;;
63398;SDS011;49533;-34.520;150.798;2023-03-01T06:54:35;3.97;;;1.50;;
63398;SDS011;49533;-34.520;150.798;2023-03-01T06:57:02;4.78;;;1.13;;
63398;SDS011;49533;-34.520;150.798;2023-03-01T06:59:29;3.35;;;1.17;;
63398;SDS011;49533;-34.520;150.798;2023-03-01T07:01:57;2.13;;;1.00;;
63398;SDS011;49533;-34.520;150.798;2023-03-01T07:04:24;2.97;;;1.38;;
63398;SDS011;49533;-34.520;150.798;2023-03-01T07:06:54;6.53;;;1.27;;
63398;SDS011;49533;-34.520;150.798;2023-03-01T07:09:22;3.38;;;1.60;;
63398;SDS011;49533;-34.520;150.798;2023-03-01T07:11:50;3.47;;;1.73;;
63398;SDS011;49533;-34.520;150.798;2023-03-01T07:14:17;5.28;;;1.33;;
63398;SDS011;49533;-34.520;150.798;2023-03-01T07:16:45;4.18;;;1.40;;
63398;SDS011;49533;-34.520;150.798;2023-03-01T07:19:13;4.03;;;1.23;;
63398;SDS011;49533;-34.520;150.798;2023-03-01T07:21:40;3.20;;;1.13;;
63398;SDS011;49533;-34.520;150.798;2023-03-01T07:24:08;3.60;;;1.48;;
63398;SDS011;49533;-34.520;150.798;2023-03-01T07:26:36;4.32;;;1.27;;
63398;SDS011;49533;-34.520;150.798;2023-03-01T07:29:04;4.68;;;1.70;;
63398;SDS011;49533;-34.520;150.798;2023-03-01T07:31:31;4.72;;;2.00;;
63398;SDS011;49533;-34.520;150.798;2023-03-01T07:33:59;5.50;;;2.10;;
63398;SDS011;49533;-34.520;150.798;2023-03-01T07:36:26;7.60;;;2.22;;
63398;SDS011;49533;-34.520;150.798;2023-03-01T07:38:53;6.75;;;2.30;;
63398;SDS011;49533;-34.520;150.798;2023-03-01T07:41:21;5.18;;;2.20;;
63398;SDS011;49533;-34.520;150.798;2023-03-01T07:43:48;4.88;;;2.22;;
63398;SDS011;49533;-34.520;150.798;2023-03-01T07:46:15;7.18;;;2.60;;
63398;SDS011;49533;-34.520;150.798;2023-03-01T07:48:44;5.97;;;2.60;;
63398;SDS011;49533;-34.520;150.798;2023-03-01T07:51:11;7.22;;;2.95;;
63398;SDS011;49533;-34.520;150.798;2023-03-01T07:53:39;6.00;;;3.00;;
63398;SDS011;49533;-34.520;150.798;2023-03-01T07:56:08;9.00;;;3.45;;
63398;SDS011;49533;-34.520;150.798;2023-03-01T07:58:38;5.15;;;2.65;;
63398;SDS011;49533;-34.520;150.798;2023-03-01T08:01:07;5.40;;;2.72;;
63398;SDS011;49533;-34.520;150.798;2023-03-01T08:03:37;6.47;;;2.72;;
63398;SDS011;49533;-34.520;150.798;2023-03-01T08:06:05;7.10;;;2.85;;
63398;SDS011;49533;-34.520;150.798;2023-03-01T08:08:34;5.10;;;2.47;;
63398;SDS011;49533;-34.520;150.798;2023-03-01T08:11:02;5.63;;;2.90;;
63398;SDS011;49533;-34.520;150.798;2023-03-01T08:13:31;6.63;;;2.60;;
63398;SDS011;49533;-34.520;150.798;2023-03-01T08:16:02;8.30;;;3.25;;
63398;SDS011;49533;-34.520;150.798;2023-03-01T08:18:31;5.18;;;2.70;;
63398;SDS011;49533;-34.520;150.798;2023-03-01T08:21:03;7.15;;;2.33;;
63398;SDS011;49533;-34.520;150.798;2023-03-01T08:23:32;7.00;;;2.63;;
63398;SDS011;49533;-34.520;150.798;2023-03-01T08:26:03;6.70;;;1.90;;
63398;SDS011;49533;-34.520;150.798;2023-03-01T08:28:31;5.13;;;2.20;;
63398;SDS011;49533;-34.520;150.798;2023-03-01T08:30:59;4.63;;;2.30;;
63398;SDS011;49533;-34.520;150.798;2023-03-01T08:33:26;5.55;;;1.92;;
63398;SDS011;49533;-34.520;150.798;2023-03-01T08:36:01;5.90;;;2.15;;
63398;SDS011;49533;-34.520;150.798;2023-03-01T08:38:30;7.95;;;2.20;;
63398;SDS011;49533;-34.520;150.798;2023-03-01T08:40:59;6.55;;;2.20;;
63398;SDS011;49533;-34.520;150.798;2023-03-01T08:43:27;8.57;;;2.17;;
63398;SDS011;49533;-34.520;150.798;2023-03-01T08:45:54;7.53;;;2.33;;
63398;SDS011;49533;-34.520;150.798;2023-03-01T08:48:21;3.78;;;1.98;;
63398;SDS011;49533;-34.520;150.798;2023-03-01T08:50:48;3.53;;;1.58;;
63398;SDS011;49533;-34.520;150.798;2023-03-01T08:53:15;5.60;;;2.30;;
63398;SDS011;49533;-34.520;150.798;2023-03-01T08:55:42;7.03;;;2.13;;
63398;SDS011;49533;-34.520;150.798;2023-03-01T08:58:10;4.55;;;2.00;;
63398;SDS011;49533;-34.520;150.798;2023-03-01T09:00:37;6.25;;;2.00;;
63398;SDS011;49533;-34.520;150.798;2023-03-01T09:03:05;5.13;;;1.85;;
63398;SDS011;49533;-34.520;150.798;2023-03-01T09:05:33;3.92;;;1.85;;
63398;SDS011;49533;-34.520;150.798;2023-03-01T09:08:02;6.15;;;2.35;;
63398;SDS011;49533;-34.520;150.798;2023-03-01T09:10:29;4.38;;;1.67;;
63398;SDS011;49533;-34.520;150.798;2023-03-01T09:12:56;4.95;;;2.33;;
63398;SDS011;49533;-34.520;150.798;2023-03-01T09:15:23;4.47;;;1.88;;
63398;SDS011;49533;-34.520;150.798;2023-03-01T09:17:50;6.32;;;1.98;;
63398;SDS011;49533;-34.520;150.798;2023-03-01T09:20:17;4.78;;;2.13;;
63398;SDS011;49533;-34.520;150.798;2023-03-01T09:22:44;4.75;;;1.85;;
63398;SDS011;49533;-34.520;150.798;2023-03-01T09:25:12;3.33;;;1.90;;
63398;SDS011;49533;-34.520;150.798;2023-03-01T09:27:40;6.00;;;2.47;;
63398;SDS011;49533;-34.520;150.798;2023-03-01T09:30:07;3.20;;;1.80;;
63398;SDS011;49533;-34.520;150.798;2023-03-01T09:32:35;3.40;;;1.77;;
63398;SDS011;49533;-34.520;150.798;2023-03-01T09:35:02;4.97;;;2.20;;
63398;SDS011;49533;-34.520;150.798;2023-03-01T09:37:31;4.80;;;2.17;;
63398;SDS011;49533;-34.520;150.798;2023-03-01T09:39:59;6.00;;;2.08;;
63398;SDS011;49533;-34.520;150.798;2023-03-01T09:42:27;5.20;;;2.15;;
63398;SDS011;49533;-34.520;150.798;2023-03-01T09:44:59;4.75;;;1.73;;
63398;SDS011;49533;-34.520;150.798;2023-03-01T09:47:33;6.93;;;2.00;;
63398;SDS011;49533;-34.520;150.798;2023-03-01T09:50:09;4.55;;;2.13;;
63398;SDS011;49533;-34.520;150.798;2023-03-01T09:52:46;3.95;;;1.80;;
63398;SDS011;49533;-34.520;150.798;2023-03-01T09:55:37;3.45;;;1.67;;
63398;SDS011;49533;-34.520;150.798;2023-03-01T09:58:26;5.60;;;2.20;;
63398;SDS011;49533;-34.520;150.798;2023-03-01T10:01:10;6.60;;;2.30;;
63398;SDS011;49533;-34.520;150.798;2023-03-01T10:03:58;3.30;;;1.75;;
63398;SDS011;49533;-34.520;150.798;2023-03-01T10:06:36;5.53;;;2.00;;
63398;SDS011;49533;-34.520;150.798;2023-03-01T10:09:11;3.45;;;1.95;;
63398;SDS011;49533;-34.520;150.798;2023-03-01T10:11:44;5.23;;;2.50;;
63398;SDS011;49533;-34.520;150.798;2023-03-01T10:14:27;5.70;;;2.42;;
63398;SDS011;49533;-34.520;150.798;2023-03-01T10:17:06;3.35;;;1.73;;
63398;SDS011;49533;-34.520;150.798;2023-03-01T10:19:55;7.20;;;2.40;;
63398;SDS011;49533;-34.520;150.798;2023-03-01T10:22:36;5.32;;;2.63;;
63398;SDS011;49533;-34.520;150.798;2023-03-01T10:25:03;7.65;;;2.53;;
63398;SDS011;49533;-34.520;150.798;2023-03-01T10:27:37;5.43;;;1.70;;
63398;SDS011;49533;-34.520;150.798;2023-03-01T10:30:22;6.80;;;2.25;;
63398;SDS011;49533;-34.520;150.798;2023-03-01T10:33:13;2.83;;;1.80;;
63398;SDS011;49533;-34.520;150.798;2023-03-01T10:35:52;4.78;;;1.88;;
63398;SDS011;49533;-34.520;150.798;2023-03-01T10:38:20;4.45;;;1.95;;
63398;SDS011;49533;-34.520;150.798;2023-03-01T10:40:52;7.43;;;2.20;;
63398;SDS011;49533;-34.520;150.798;2023-03-01T10:43:33;4.45;;;2.38;;
63398;SDS011;49533;-34.520;150.798;2023-03-01T10:51:41;5.65;;;2.38;;
63398;SDS011;49533;-34.520;150.798;2023-03-01T10:54:17;4.03;;;1.77;;
63398;SDS011;49533;-34.520;150.798;2023-03-01T10:56:47;4.28;;;1.92;;
63398;SDS011;49533;-34.520;150.798;2023-03-01T10:59:21;4.30;;;1.80;;
63398;SDS011;49533;-34.520;150.798;2023-03-01T11:02:01;5.13;;;2.45;;
63398;SDS011;49533;-34.520;150.798;2023-03-01T11:04:52;5.15;;;2.25;;
63398;SDS011;49533;-34.520;150.798;2023-03-01T11:07:26;7.05;;;2.47;;
63398;SDS011;49533;-34.520;150.798;2023-03-01T11:09:54;3.92;;;1.80;;
63398;SDS011;49533;-34.520;150.798;2023-03-01T11:12:21;5.03;;;2.05;;
63398;SDS011;49533;-34.520;150.798;2023-03-01T11:14:49;5.22;;;1.90;;
63398;SDS011;49533;-34.520;150.798;2023-03-01T11:17:27;7.10;;;2.45;;
63398;SDS011;49533;-34.520;150.798;2023-03-01T11:20:05;4.88;;;2.00;;
63398;SDS011;49533;-34.520;150.798;2023-03-01T11:22:51;4.18;;;1.92;;
63398;SDS011;49533;-34.520;150.798;2023-03-01T11:25:23;4.53;;;2.38;;
63398;SDS011;49533;-34.520;150.798;2023-03-01T11:27:55;6.63;;;2.10;;
63398;SDS011;49533;-34.520;150.798;2023-03-01T11:30:35;6.57;;;2.47;;
63398;SDS011;49533;-34.520;150.798;2023-03-01T11:33:13;4.78;;;2.22;;
63398;SDS011;49533;-34.520;150.798;2023-03-01T11:35:49;8.52;;;2.35;;
63398;SDS011;49533;-34.520;150.798;2023-03-01T11:38:27;6.22;;;2.28;;
63398;SDS011;49533;-34.520;150.798;2023-03-01T11:43:52;5.57;;;2.08;;
63398;SDS011;49533;-34.520;150.798;2023-03-01T11:49:41;5.00;;;2.38;;
63398;SDS011;49533;-34.520;150.798;2023-03-01T11:52:29;7.15;;;2.10;;
63398;SDS011;49533;-34.520;150.798;2023-03-01T12:01:00;3.58;;;2.22;;
63398;SDS011;49533;-34.520;150.798;2023-03-01T12:03:47;5.50;;;1.90;;
63398;SDS011;49533;-34.520;150.798;2023-03-01T12:06:39;3.95;;;1.63;;
63398;SDS011;49533;-34.520;150.798;2023-03-01T12:09:31;4.60;;;1.92;;
63398;SDS011;49533;-34.520;150.798;2023-03-01T12:15:26;2.95;;;1.52;;
63398;SDS011;49533;-34.520;150.798;2023-03-01T12:18:16;3.00;;;1.80;;
63398;SDS011;49533;-34.520;150.798;2023-03-01T12:24:05;4.63;;;1.63;;
63398;SDS011;49533;-34.520;150.798;2023-03-01T12:27:15;3.90;;;2.08;;
63398;SDS011;49533;-34.520;150.798;2023-03-01T12:30:02;3.53;;;1.85;;
63398;SDS011;49533;-34.520;150.798;2023-03-01T12:36:04;3.67;;;2.03;;
63398;SDS011;49533;-34.520;150.798;2023-03-01T12:39:03;3.28;;;1.83;;
63398;SDS011;49533;-34.520;150.798;2023-03-01T12:41:53;2.30;;;1.65;;
63398;SDS011;49533;-34.520;150.798;2023-03-01T12:44:48;3.67;;;2.08;;
63398;SDS011;49533;-34.520;150.798;2023-03-01T12:50:42;1.55;;;1.45;;
63398;SDS011;49533;-34.520;150.798;2023-03-01T12:53:23;2.03;;;1.50;;
63398;SDS011;49533;-34.520;150.798;2023-03-01T12:55:53;2.97;;;1.58;;
63398;SDS011;49533;-34.520;150.798;2023-03-01T12:58:31;2.00;;;1.63;;
63398;SDS011;49533;-34.520;150.798;2023-03-01T13:01:19;3.20;;;1.88;;
63398;SDS011;49533;-34.520;150.798;2023-03-01T13:07:10;2.97;;;2.00;;
63398;SDS011;49533;-34.520;150.798;2023-03-01T13:10:03;3.17;;;1.85;;
63398;SDS011;49533;-34.520;150.798;2023-03-01T13:12:52;3.22;;;1.80;;
63398;SDS011;49533;-34.520;150.798;2023-03-01T13:15:38;2.72;;;2.00;;
63398;SDS011;49533;-34.520;150.798;2023-03-01T13:20:54;2.88;;;1.83;;
63398;SDS011;49533;-34.520;150.798;2023-03-01T13:23:25;2.67;;;1.55;;
63398;SDS011;49533;-34.520;150.798;2023-03-01T13:26:01;2.72;;;1.73;;
63398;SDS011;49533;-34.520;150.798;2023-03-01T13:28:39;2.05;;;1.55;;
63398;SDS011;49533;-34.520;150.798;2023-03-01T13:34:39;2.30;;;1.98;;
63398;SDS011;49533;-34.520;150.798;2023-03-01T13:37:09;3.33;;;1.75;;
63398;SDS011;49533;-34.520;150.798;2023-03-01T13:39:45;3.70;;;2.08;;
63398;SDS011;49533;-34.520;150.798;2023-03-01T13:44:58;3.03;;;1.52;;
63398;SDS011;49533;-34.520;150.798;2023-03-01T13:47:26;3.15;;;1.75;;
63398;SDS011;49533;-34.520;150.798;2023-03-01T13:49:57;3.58;;;2.10;;
63398;SDS011;49533;-34.520;150.798;2023-03-01T13:52:39;3.47;;;2.25;;
63398;SDS011;49533;-34.520;150.798;2023-03-01T13:55:16;4.72;;;1.95;;
63398;SDS011;49533;-34.520;150.798;2023-03-01T13:57:48;2.53;;;1.60;;
63398;SDS011;49533;-34.520;150.798;2023-03-01T14:00:26;2.53;;;1.60;;
63398;SDS011;49533;-34.520;150.798;2023-03-01T14:03:03;5.78;;;2.42;;
63398;SDS011;49533;-34.520;150.798;2023-03-01T14:05:39;4.18;;;1.92;;
63398;SDS011;49533;-34.520;150.798;2023-03-01T14:08:18;3.53;;;1.90;;
63398;SDS011;49533;-34.520;150.798;2023-03-01T14:10:59;2.72;;;1.90;;
63398;SDS011;49533;-34.520;150.798;2023-03-01T14:13:55;4.93;;;2.45;;
63398;SDS011;49533;-34.520;150.798;2023-03-01T14:16:41;3.03;;;1.52;;
63398;SDS011;49533;-34.520;150.798;2023-03-01T14:19:25;3.83;;;2.03;;
63398;SDS011;49533;-34.520;150.798;2023-03-01T14:22:04;2.70;;;1.75;;
63398;SDS011;49533;-34.520;150.798;2023-03-01T14:24:47;7.00;;;2.63;;
63398;SDS011;49533;-34.520;150.798;2023-03-01T14:27:16;3.30;;;1.73;;
63398;SDS011;49533;-34.520;150.798;2023-03-01T14:29:45;3.47;;;2.00;;
63398;SDS011;49533;-34.520;150.798;2023-03-01T14:32:23;3.13;;;1.58;;
63398;SDS011;49533;-34.520;150.798;2023-03-01T14:34:52;7.75;;;2.35;;
63398;SDS011;49533;-34.520;150.798;2023-03-01T14:37:25;2.22;;;1.65;;
63398;SDS011;49533;-34.520;150.798;2023-03-01T14:39:55;2.58;;;1.98;;
63398;SDS011;49533;-34.520;150.798;2023-03-01T14:42:23;6.13;;;1.92;;
63398;SDS011;49533;-34.520;150.798;2023-03-01T14:44:55;5.97;;;2.10;;
63398;SDS011;49533;-34.520;150.798;2023-03-01T14:47:28;2.90;;;1.80;;
63398;SDS011;49533;-34.520;150.798;2023-03-01T14:49:59;3.40;;;1.90;;
63398;SDS011;49533;-34.520;150.798;2023-03-01T14:52:35;2.78;;;1.80;;
63398;SDS011;49533;-34.520;150.798;2023-03-01T14:55:09;4.13;;;2.22;;
63398;SDS011;49533;-34.520;150.798;2023-03-01T14:57:43;2.53;;;1.65;;
63398;SDS011;49533;-34.520;150.798;2023-03-01T15:00:15;3.25;;;1.88;;
63398;SDS011;49533;-34.520;150.798;2023-03-01T15:02:46;2.72;;;1.45;;
63398;SDS011;49533;-34.520;150.798;2023-03-01T15:05:25;2.22;;;1.42;;
63398;SDS011;49533;-34.520;150.798;2023-03-01T15:07:56;3.85;;;1.95;;
63398;SDS011;49533;-34.520;150.798;2023-03-01T15:10:26;3.50;;;1.70;;
63398;SDS011;49533;-34.520;150.798;2023-03-01T15:12:55;3.75;;;1.80;;
63398;SDS011;49533;-34.520;150.798;2023-03-01T15:15:36;4.60;;;1.70;;
63398;SDS011;49533;-34.520;150.798;2023-03-01T15:18:17;2.38;;;1.48;;